createdAt,value
2024-03-29T00:01:14.173Z,0.5001068115234375
2024-03-29T00:11:14.191Z,2.099609375
2024-03-29T00:21:14.107Z,0.4001617431640625
2024-03-29T00:31:14.023Z,0.30002593994140625
2024-03-29T00:41:13.980Z,3.900146484375
2024-03-29T00:51:13.927Z,2.2003173828125
2024-03-29T01:01:13.824Z,1.800537109375
2024-03-29T01:11:13.694Z,1.6998291015625
2024-03-29T01:21:13.610Z,1.10015869140625
2024-03-29T01:31:13.610Z,4.19921875
2024-03-29T01:41:14.072Z,1.399993896484375
2024-03-29T01:51:13.986Z,0.4001617431640625
2024-03-29T02:01:14.517Z,1.800537109375
2024-03-29T02:11:15.024Z,2.79998779296875
2024-03-29T02:21:15.102Z,1.89971923828125
2024-03-29T02:31:14.857Z,2.29949951171875
2024-03-29T02:41:14.804Z,2.90069580078125
2024-03-29T02:51:14.670Z,1.89971923828125
2024-03-29T03:01:15.427Z,0.6999969482421875
2024-03-29T03:11:16.749Z,1.800537109375
2024-03-29T03:21:16.682Z,2.29949951171875
2024-03-29T03:31:16.553Z,3.7994384765625
2024-03-29T03:41:16.615Z,3.60107421875
2024-03-29T03:51:17.132Z,3.2012939453125
2024-03-29T04:01:17.081Z,2.90069580078125
2024-03-29T04:11:16.975Z,3.5003662109375
2024-03-29T04:21:16.933Z,5.3985595703125
2024-03-29T04:31:16.941Z,6.1004638671875
2024-03-29T04:41:18.240Z,2.79998779296875
2024-03-29T04:51:18.553Z,3.60107421875
2024-03-29T05:01:19.643Z,4.5013427734375
2024-03-29T05:11:19.641Z,6.500244140625
2024-03-29T05:21:20.364Z,3.60107421875
2024-03-29T05:31:20.291Z,5.8013916015625
2024-03-29T05:41:20.333Z,5.999755859375
2024-03-29T05:51:20.139Z,4.19921875
2024-03-29T06:01:20.071Z,5.2001953125
2024-03-29T06:11:20.042Z,7.3974609375
2024-03-29T06:21:19.929Z,7.501220703125
2024-03-29T06:31:20.404Z,8.80126953125
2024-03-29T06:41:21.703Z,7.3974609375
2024-03-29T06:51:20.259Z,11.199951171875
2024-03-29T07:01:20.174Z,10.101318359375
2024-03-29T07:11:20.096Z,8.80126953125
2024-03-29T07:21:20.075Z,6.1004638671875
2024-03-29T07:31:20.088Z,11.297607421875
2024-03-29T07:41:20.033Z,4.901123046875
2024-03-29T07:51:19.818Z,2.79998779296875
2024-03-29T08:01:19.767Z,6.89697265625
2024-03-29T08:11:19.996Z,16.10107421875
2024-03-29T08:21:19.895Z,5.499267578125
2024-03-29T08:31:20.548Z,7.3974609375
2024-03-29T08:41:20.566Z,4.998779296875
2024-03-29T08:51:20.402Z,8.001708984375
2024-03-29T09:01:20.331Z,9.002685546875
2024-03-29T09:11:20.277Z,7.2021484375
2024-03-29T09:21:20.203Z,8.89892578125
2024-03-29T09:31:20.115Z,6.402587890625
2024-03-29T09:41:20.077Z,16.10107421875
2024-03-29T09:51:19.987Z,11.102294921875
2024-03-29T10:01:19.925Z,14.404296875
2024-03-29T10:11:19.893Z,7.2021484375
2024-03-29T10:21:19.765Z,15.19775390625
2024-03-29T10:31:19.697Z,12.59765625
2024-03-29T10:41:20.515Z,11.102294921875
2024-03-29T10:51:20.447Z,11.798095703125
2024-03-29T11:01:20.358Z,11.102294921875
2024-03-29T11:11:20.308Z,6.298828125
2024-03-29T11:21:20.232Z,10.101318359375
2024-03-29T11:31:20.144Z,10.601806640625
2024-03-29T11:41:20.072Z,7.501220703125
2024-03-29T11:51:20.822Z,9.80224609375
2024-03-29T12:01:20.757Z,8.001708984375
2024-03-29T12:11:23.088Z,7.098388671875
2024-03-29T12:21:20.614Z,7.598876953125
2024-03-29T12:31:20.544Z,2.9998779296875
2024-03-29T12:41:20.552Z,4.8004150390625
2024-03-29T12:51:20.424Z,10.90087890625
2024-03-29T13:01:20.328Z,7.80029296875
2024-03-29T13:11:20.266Z,6.402587890625
2024-03-29T13:21:20.207Z,5.0994873046875
2024-03-29T13:31:20.126Z,10.90087890625
2024-03-29T13:41:20.941Z,5.3985595703125
2024-03-29T13:51:20.878Z,2.60009765625
2024-03-29T14:01:20.812Z,4.901123046875
2024-03-29T14:11:20.747Z,6.597900390625
2024-03-29T14:21:20.684Z,6.89697265625
2024-03-29T14:31:22.335Z,3.399658203125
2024-03-29T14:41:20.530Z,6.201171875
2024-03-29T14:51:20.453Z,2.9998779296875
2024-03-29T15:01:20.380Z,2.00042724609375
2024-03-29T15:11:21.080Z,3.1005859375
2024-03-29T15:21:22.110Z,0.5001068115234375
2024-03-29T15:31:23.182Z,2.79998779296875
2024-03-29T15:41:24.095Z,2.2003173828125
2024-03-29T15:51:25.455Z,2.29949951171875
2024-03-29T16:01:25.375Z,5.2001953125
2024-03-29T16:11:26.303Z,4.998779296875
2024-03-29T16:21:26.193Z,6.500244140625
2024-03-29T16:31:27.823Z,1.6998291015625
2024-03-29T16:41:28.606Z,4.19921875
2024-03-29T16:51:29.868Z,5.8990478515625
2024-03-29T17:01:31.395Z,3.900146484375
2024-03-29T17:11:32.871Z,1.60064697265625
2024-03-29T17:21:34.068Z,1.200103759765625
2024-03-29T17:31:35.710Z,1.200103759765625
2024-03-29T17:41:36.427Z,0.20008087158203125
2024-03-29T17:51:38.032Z,4.0008544921875
2024-03-29T18:01:38.902Z,1.800537109375
2024-03-29T18:11:40.343Z,4.0985107421875
2024-03-29T18:21:41.126Z,2.4993896484375
2024-03-29T18:32:45.095Z,1.000213623046875
2024-03-29T18:41:42.873Z,0.9002685546875
2024-03-29T18:51:44.455Z,1.000213623046875
2024-03-29T19:01:45.974Z,0.800323486328125
2024-03-29T19:11:46.743Z,1.200103759765625
2024-03-29T19:21:47.539Z,1.60064697265625
2024-03-29T19:31:48.869Z,1.399993896484375
2024-03-29T19:41:49.751Z,0.10004043579101562
2024-03-29T19:51:51.081Z,1.10015869140625
2024-03-29T20:01:51.776Z,2.29949951171875
2024-03-29T20:11:52.957Z,1.000213623046875
2024-03-29T20:21:54.147Z,2.40020751953125
2024-03-29T20:31:55.409Z,0.20008087158203125
2024-03-29T20:41:56.162Z,1.399993896484375
2024-03-29T20:51:56.750Z,0.6000518798828125
2024-03-29T21:01:57.444Z,0
2024-03-29T21:11:59.140Z,0.20008087158203125
2024-03-29T21:21:59.132Z,0.30002593994140625
2024-03-29T21:31:59.046Z,3.2012939453125
2024-03-29T21:41:58.981Z,0.10004043579101562
2024-03-29T21:52:00.646Z,0.5001068115234375
2024-03-29T22:02:01.959Z,1.399993896484375
2024-03-29T22:12:03.423Z,1.399993896484375
2024-03-29T22:22:04.886Z,0.10004043579101562
2024-03-29T22:32:06.223Z,0.30002593994140625
2024-03-29T22:42:07.681Z,4.5013427734375
2024-03-29T22:52:09.269Z,4.19921875
2024-03-29T23:02:10.792Z,2.29949951171875
2024-03-29T23:12:11.002Z,1.399993896484375
2024-03-29T23:22:11.754Z,1.49993896484375
2024-03-29T23:32:12.684Z,1.800537109375
2024-03-29T23:42:13.376Z,1.000213623046875
2024-03-29T23:52:14.958Z,2.40020751953125
